sensor_id;sensor_type;location;lat;lon;timestamp;pressure;altitude;pressure_sealevel;temperature;humidity
57114;BME280;42994;51.606;9.988;2023-01-26T00:00:52;99747.00;;;-3.58;100.00
57114;BME280;42994;51.606;9.988;2023-01-26T00:03:19;99742.25;;;-3.67;100.00
57114;BME280;42994;51.606;9.988;2023-01-26T00:05:46;99740.75;;;-3.71;100.00
57114;BME280;42994;51.606;9.988;2023-01-26T00:08:13;99736.19;;;-3.68;100.00
57114;BME280;42994;51.606;9.988;2023-01-26T00:10:40;99733.63;;;-3.69;100.00
57114;BME280;42994;51.606;9.988;2023-01-26T00:13:17;99730.19;;;-3.70;100.00
57114;BME280;42994;51.606;9.988;2023-01-26T00:15:44;99737.97;;;-3.68;100.00
57114;BME280;42994;51.606;9.988;2023-01-26T00:18:11;99731.69;;;-3.81;100.00
57114;BME280;42994;51.606;9.988;2023-01-26T00:20:37;99747.16;;;-3.77;100.00
57114;BME280;42994;51.606;9.988;2023-01-26T00:23:04;99733.91;;;-3.74;100.00
57114;BME280;42994;51.606;9.988;2023-01-26T00:25:31;99726.19;;;-3.77;100.00
57114;BME280;42994;51.606;9.988;2023-01-26T00:27:57;99728.47;;;-3.87;100.00
57114;BME280;42994;51.606;9.988;2023-01-26T00:30:25;99716.38;;;-3.89;100.00
57114;BME280;42994;51.606;9.988;2023-01-26T00:32:52;99716.63;;;-3.94;100.00
57114;BME280;42994;51.606;9.988;2023-01-26T00:35:21;99711.56;;;-3.97;100.00
57114;BME280;42994;51.606;9.988;2023-01-26T00:37:48;99709.09;;;-4.00;100.00
57114;BME280;42994;51.606;9.988;2023-01-26T00:40:15;99699.13;;;-4.09;100.00
57114;BME280;42994;51.606;9.988;2023-01-26T00:42:42;99702.06;;;-4.15;100.00
57114;BME280;42994;51.606;9.988;2023-01-26T00:45:09;99699.53;;;-4.17;100.00
57114;BME280;42994;51.606;9.988;2023-01-26T00:47:38;99700.13;;;-4.12;100.00
57114;BME280;42994;51.606;9.988;2023-01-26T00:50:05;99711.22;;;-4.07;100.00
57114;BME280;42994;51.606;9.988;2023-01-26T00:52:32;99705.53;;;-4.15;100.00
57114;BME280;42994;51.606;9.988;2023-01-26T00:54:58;99696.75;;;-4.14;100.00
57114;BME280;42994;51.606;9.988;2023-01-26T00:57:25;99691.38;;;-4.11;100.00
57114;BME280;42994;51.606;9.988;2023-01-26T00:59:51;99684.44;;;-4.12;100.00
57114;BME280;42994;51.606;9.988;2023-01-26T01:02:18;99686.59;;;-4.20;100.00
57114;BME280;42994;51.606;9.988;2023-01-26T01:04:46;99691.06;;;-4.22;100.00
57114;BME280;42994;51.606;9.988;2023-01-26T01:07:13;99693.53;;;-4.19;100.00
57114;BME280;42994;51.606;9.988;2023-01-26T01:09:39;99690.78;;;-4.33;100.00
57114;BME280;42994;51.606;9.988;2023-01-26T01:12:06;99684.31;;;-4.26;100.00
57114;BME280;42994;51.606;9.988;2023-01-26T01:14:33;99683.28;;;-4.23;100.00
57114;BME280;42994;51.606;9.988;2023-01-26T01:16:59;99687.25;;;-4.32;100.00
57114;BME280;42994;51.606;9.988;2023-01-26T01:19:26;99688.72;;;-4.27;100.00
57114;BME280;42994;51.606;9.988;2023-01-26T01:21:54;99695.13;;;-4.32;100.00
57114;BME280;42994;51.606;9.988;2023-01-26T01:24:21;99694.09;;;-4.30;100.00
57114;BME280;42994;51.606;9.988;2023-01-26T01:26:47;99693.19;;;-4.29;100.00
57114;BME280;42994;51.606;9.988;2023-01-26T01:29:14;99694.94;;;-4.29;100.00
57114;BME280;42994;51.606;9.988;2023-01-26T01:31:41;99689.63;;;-4.28;100.00
57114;BME280;42994;51.606;9.988;2023-01-26T01:34:08;99690.84;;;-4.17;100.00
57114;BME280;42994;51.606;9.988;2023-01-26T01:36:35;99691.94;;;-4.21;100.00
57114;BME280;42994;51.606;9.988;2023-01-26T01:39:03;99689.06;;;-4.17;100.00
57114;BME280;42994;51.606;9.988;2023-01-26T01:41:30;99685.63;;;-4.01;100.00
57114;BME280;42994;51.606;9.988;2023-01-26T01:44:15;99684.00;;;-4.04;100.00
57114;BME280;42994;51.606;9.988;2023-01-26T01:46:46;99684.56;;;-4.15;100.00
57114;BME280;42994;51.606;9.988;2023-01-26T01:49:17;99684.38;;;-4.28;100.00
57114;BME280;42994;51.606;9.988;2023-01-26T01:51:49;99691.56;;;-4.31;100.00
57114;BME280;42994;51.606;9.988;2023-01-26T01:54:23;99687.06;;;-4.29;100.00
57114;BME280;42994;51.606;9.988;2023-01-26T01:56:55;99682.72;;;-4.29;100.00
57114;BME280;42994;51.606;9.988;2023-01-26T01:59:23;99672.81;;;-4.39;100.00
57114;BME280;42994;51.606;9.988;2023-01-26T02:01:51;99669.16;;;-4.37;100.00
57114;BME280;42994;51.606;9.988;2023-01-26T02:04:20;99675.25;;;-4.36;100.00
57114;BME280;42994;51.606;9.988;2023-01-26T02:06:50;99665.56;;;-4.34;100.00
57114;BME280;42994;51.606;9.988;2023-01-26T02:09:21;99668.34;;;-4.37;100.00
57114;BME280;42994;51.606;9.988;2023-01-26T02:12:10;99663.31;;;-4.42;100.00
57114;BME280;42994;51.606;9.988;2023-01-26T02:14:39;99660.91;;;-4.45;100.00
57114;BME280;42994;51.606;9.988;2023-01-26T02:17:06;99657.66;;;-4.50;100.00
57114;BME280;42994;51.606;9.988;2023-01-26T02:19:42;99655.13;;;-4.52;100.00
57114;BME280;42994;51.606;9.988;2023-01-26T02:22:15;99652.72;;;-4.56;100.00
57114;BME280;42994;51.606;9.988;2023-01-26T02:24:48;99652.84;;;-4.58;100.00
57114;BME280;42994;51.606;9.988;2023-01-26T02:27:17;99658.84;;;-4.56;100.00
57114;BME280;42994;51.606;9.988;2023-01-26T02:29:44;99647.59;;;-4.58;100.00
57114;BME280;42994;51.606;9.988;2023-01-26T02:32:10;99649.84;;;-4.68;100.00
57114;BME280;42994;51.606;9.988;2023-01-26T02:34:37;99653.69;;;-4.57;100.00
57114;BME280;42994;51.606;9.988;2023-01-26T02:37:04;99643.44;;;-4.62;100.00
57114;BME280;42994;51.606;9.988;2023-01-26T02:39:40;99641.84;;;-4.65;100.00
57114;BME280;42994;51.606;9.988;2023-01-26T02:42:10;99643.63;;;-4.65;100.00
57114;BME280;42994;51.606;9.988;2023-01-26T02:44:56;99626.22;;;-4.66;100.00
57114;BME280;42994;51.606;9.988;2023-01-26T02:47:23;99632.97;;;-4.62;100.00
57114;BME280;42994;51.606;9.988;2023-01-26T02:49:50;99631.59;;;-4.69;100.00
57114;BME280;42994;51.606;9.988;2023-01-26T02:52:19;99633.44;;;-4.71;100.00
57114;BME280;42994;51.606;9.988;2023-01-26T02:54:53;99632.69;;;-4.73;100.00
57114;BME280;42994;51.606;9.988;2023-01-26T02:57:37;99636.06;;;-4.71;100.00
57114;BME280;42994;51.606;9.988;2023-01-26T03:00:09;99627.91;;;-4.65;100.00
57114;BME280;42994;51.606;9.988;2023-01-26T03:02:36;99623.31;;;-4.60;100.00
57114;BME280;42994;51.606;9.988;2023-01-26T03:05:03;99637.97;;;-4.57;100.00
57114;BME280;42994;51.606;9.988;2023-01-26T03:07:30;99628.84;;;-4.66;100.00
57114;BME280;42994;51.606;9.988;2023-01-26T03:09:57;99631.44;;;-4.66;100.00
57114;BME280;42994;51.606;9.988;2023-01-26T03:12:24;99627.75;;;-4.62;100.00
57114;BME280;42994;51.606;9.988;2023-01-26T03:14:51;99634.00;;;-4.65;100.00
57114;BME280;42994;51.606;9.988;2023-01-26T03:17:44;99629.38;;;-4.59;100.00
57114;BME280;42994;51.606;9.988;2023-01-26T03:20:10;99619.75;;;-4.59;100.00
57114;BME280;42994;51.606;9.988;2023-01-26T03:22:55;99630.66;;;-4.51;100.00
57114;BME280;42994;51.606;9.988;2023-01-26T03:25:39;99621.59;;;-4.61;100.00
57114;BME280;42994;51.606;9.988;2023-01-26T03:28:25;99626.00;;;-4.61;100.00
57114;BME280;42994;51.606;9.988;2023-01-26T03:30:54;99613.59;;;-4.58;100.00
57114;BME280;42994;51.606;9.988;2023-01-26T03:33:22;99609.13;;;-4.56;100.00
57114;BME280;42994;51.606;9.988;2023-01-26T03:35:52;99605.75;;;-4.58;100.00
57114;BME280;42994;51.606;9.988;2023-01-26T03:38:20;99607.69;;;-4.61;100.00
57114;BME280;42994;51.606;9.988;2023-01-26T03:40:51;99601.28;;;-4.56;100.00
57114;BME280;42994;51.606;9.988;2023-01-26T03:43:40;99604.81;;;-4.57;100.00
57114;BME280;42994;51.606;9.988;2023-01-26T03:46:24;99601.00;;;-4.67;100.00
57114;BME280;42994;51.606;9.988;2023-01-26T03:49:11;99603.44;;;-4.64;100.00
57114;BME280;42994;51.606;9.988;2023-01-26T03:51:56;99597.03;;;-4.58;100.00
57114;BME280;42994;51.606;9.988;2023-01-26T03:54:40;99596.72;;;-4.52;100.00
57114;BME280;42994;51.606;9.988;2023-01-26T03:57:24;99599.41;;;-4.54;100.00
57114;BME280;42994;51.606;9.988;2023-01-26T03:59:50;99609.13;;;-4.56;100.00
57114;BME280;42994;51.606;9.988;2023-01-26T04:02:20;99605.81;;;-4.59;100.00
57114;BME280;42994;51.606;9.988;2023-01-26T04:05:08;99596.69;;;-4.68;100.00
57114;BME280;42994;51.606;9.988;2023-01-26T04:08:00;99606.25;;;-4.67;100.00
57114;BME280;42994;51.606;9.988;2023-01-26T04:10:45;99603.28;;;-4.61;100.00
57114;BME280;42994;51.606;9.988;2023-01-26T04:13:12;99603.13;;;-4.58;100.00
57114;BME280;42994;51.606;9.988;2023-01-26T04:16:01;99598.66;;;-4.56;100.00
57114;BME280;42994;51.606;9.988;2023-01-26T04:18:45;99597.69;;;-4.71;100.00
57114;BME280;42994;51.606;9.988;2023-01-26T04:21:31;99596.06;;;-4.73;100.00
57114;BME280;42994;51.606;9.988;2023-01-26T04:24:05;99597.69;;;-4.71;100.00
57114;BME280;42994;51.606;9.988;2023-01-26T04:26:35;99600.63;;;-4.77;100.00
57114;BME280;42994;51.606;9.988;2023-01-26T04:29:07;99603.09;;;-4.74;100.00
57114;BME280;42994;51.606;9.988;2023-01-26T04:31:35;99587.53;;;-4.77;100.00
57114;BME280;42994;51.606;9.988;2023-01-26T04:34:04;99590.22;;;-4.78;100.00
57114;BME280;42994;51.606;9.988;2023-01-26T04:36:32;99590.56;;;-4.85;100.00
57114;BME280;42994;51.606;9.988;2023-01-26T04:38:59;99591.31;;;-4.83;100.00
57114;BME280;42994;51.606;9.988;2023-01-26T04:41:28;99591.41;;;-4.84;100.00
57114;BME280;42994;51.606;9.988;2023-01-26T04:44:02;99579.28;;;-4.85;100.00
57114;BME280;42994;51.606;9.988;2023-01-26T04:46:29;99574.53;;;-4.78;100.00
57114;BME280;42994;51.606;9.988;2023-01-26T04:48:57;99581.19;;;-4.89;100.00
57114;BME280;42994;51.606;9.988;2023-01-26T04:51:24;99580.03;;;-4.83;100.00
57114;BME280;42994;51.606;9.988;2023-01-26T04:53:52;99579.28;;;-4.85;100.00
57114;BME280;42994;51.606;9.988;2023-01-26T04:56:23;99562.97;;;-4.90;100.00
57114;BME280;42994;51.606;9.988;2023-01-26T04:58:51;99570.81;;;-4.90;100.00
57114;BME280;42994;51.606;9.988;2023-01-26T05:01:18;99562.72;;;-4.86;100.00
57114;BME280;42994;51.606;9.988;2023-01-26T05:03:46;99566.81;;;-4.80;100.00
57114;BME280;42994;51.606;9.988;2023-01-26T05:06:12;99569.50;;;-4.81;100.00
57114;BME280;42994;51.606;9.988;2023-01-26T05:08:41;99587.19;;;-4.87;100.00
57114;BME280;42994;51.606;9.988;2023-01-26T05:11:13;99576.03;;;-4.90;100.00
57114;BME280;42994;51.606;9.988;2023-01-26T05:13:46;99580.59;;;-4.94;100.00
57114;BME280;42994;51.606;9.988;2023-01-26T05:16:16;99575.28;;;-4.92;100.00
57114;BME280;42994;51.606;9.988;2023-01-26T05:19:00;99576.13;;;-4.92;100.00
57114;BME280;42994;51.606;9.988;2023-01-26T05:21:44;99574.13;;;-4.87;100.00
57114;BME280;42994;51.606;9.988;2023-01-26T05:24:12;99566.97;;;-4.83;100.00
57114;BME280;42994;51.606;9.988;2023-01-26T05:26:49;99571.16;;;-4.80;100.00
57114;BME280;42994;51.606;9.988;2023-01-26T05:29:37;99561.88;;;-4.86;100.00
57114;BME280;42994;51.606;9.988;2023-01-26T05:32:09;99554.56;;;-4.79;100.00
57114;BME280;42994;51.606;9.988;2023-01-26T05:34:36;99566.63;;;-4.77;100.00
57114;BME280;42994;51.606;9.988;2023-01-26T05:37:04;99564.25;;;-4.81;100.00
57114;BME280;42994;51.606;9.988;2023-01-26T05:39:33;99560.56;;;-4.77;100.00
57114;BME280;42994;51.606;9.988;2023-01-26T05:42:03;99551.88;;;-4.62;100.00
57114;BME280;42994;51.606;9.988;2023-01-26T05:44:55;99560.06;;;-4.68;100.00
57114;BME280;42994;51.606;9.988;2023-01-26T05:47:22;99556.16;;;-4.77;100.00
57114;BME280;42994;51.606;9.988;2023-01-26T05:49:51;99560.97;;;-4.69;100.00
57114;BME280;42994;51.606;9.988;2023-01-26T05:52:25;99557.69;;;-4.73;100.00
57114;BME280;42994;51.606;9.988;2023-01-26T05:54:52;99563.59;;;-4.69;100.00
57114;BME280;42994;51.606;9.988;2023-01-26T05:57:20;99557.72;;;-4.57;100.00
57114;BME280;42994;51.606;9.988;2023-01-26T05:59:57;99569.38;;;-4.47;100.00
57114;BME280;42994;51.606;9.988;2023-01-26T06:02:24;99570.56;;;-4.36;100.00
57114;BME280;42994;51.606;9.988;2023-01-26T06:04:52;99571.91;;;-4.29;100.00
57114;BME280;42994;51.606;9.988;2023-01-26T06:07:19;99571.75;;;-4.26;100.00
57114;BME280;42994;51.606;9.988;2023-01-26T06:09:54;99583.75;;;-4.22;100.00
57114;BME280;42994;51.606;9.988;2023-01-26T06:12:38;99580.22;;;-4.21;100.00
57114;BME280;42994;51.606;9.988;2023-01-26T06:15:23;99590.56;;;-4.35;100.00
57114;BME280;42994;51.606;9.988;2023-01-26T06:17:50;99580.94;;;-4.51;100.00
57114;BME280;42994;51.606;9.988;2023-01-26T06:20:18;99586.34;;;-4.54;100.00
57114;BME280;42994;51.606;9.988;2023-01-26T06:22:58;99584.75;;;-4.40;100.00
57114;BME280;42994;51.606;9.988;2023-01-26T06:25:40;99582.03;;;-4.55;100.00
57114;BME280;42994;51.606;9.988;2023-01-26T06:28:08;99581.59;;;-4.63;100.00
57114;BME280;42994;51.606;9.988;2023-01-26T06:30:35;99587.66;;;-4.63;100.00
57114;BME280;42994;51.606;9.988;2023-01-26T06:33:05;99585.06;;;-4.63;100.00
57114;BME280;42994;51.606;9.988;2023-01-26T06:35:35;99590.41;;;-4.48;100.00
57114;BME280;42994;51.606;9.988;2023-01-26T06:38:05;99589.56;;;-4.49;100.00
57114;BME280;42994;51.606;9.988;2023-01-26T06:40:31;99588.88;;;-4.52;100.00
57114;BME280;42994;51.606;9.988;2023-01-26T06:42:58;99598.31;;;-4.50;100.00
57114;BME280;42994;51.606;9.988;2023-01-26T06:45:26;99600.34;;;-4.55;100.00
57114;BME280;42994;51.606;9.988;2023-01-26T06:47:54;99602.13;;;-4.55;100.00
57114;BME280;42994;51.606;9.988;2023-01-26T06:50:24;99600.41;;;-4.56;100.00
57114;BME280;42994;51.606;9.988;2023-01-26T06:52:54;99602.19;;;-4.57;100.00
57114;BME280;42994;51.606;9.988;2023-01-26T06:55:41;99598.13;;;-4.63;100.00
57114;BME280;42994;51.606;9.988;2023-01-26T06:58:21;99595.50;;;-4.63;100.00
57114;BME280;42994;51.606;9.988;2023-01-26T07:01:16;99590.06;;;-4.58;100.00
57114;BME280;42994;51.606;9.988;2023-01-26T07:03:44;99594.53;;;-4.60;100.00
57114;BME280;42994;51.606;9.988;2023-01-26T07:06:13;99598.75;;;-4.57;100.00
57114;BME280;42994;51.606;9.988;2023-01-26T07:08:40;99596.88;;;-4.55;100.00
57114;BME280;42994;51.606;9.988;2023-01-26T07:11:07;99585.41;;;-4.53;100.00
57114;BME280;42994;51.606;9.988;2023-01-26T07:13:35;99593.25;;;-4.53;100.00
57114;BME280;42994;51.606;9.988;2023-01-26T07:16:03;99584.72;;;-4.56;100.00
57114;BME280;42994;51.606;9.988;2023-01-26T07:18:32;99584.56;;;-4.53;100.00
57114;BME280;42994;51.606;9.988;2023-01-26T07:20:59;99588.88;;;-4.52;100.00
57114;BME280;42994;51.606;9.988;2023-01-26T07:23:26;99586.94;;;-4.49;100.00
57114;BME280;42994;51.606;9.988;2023-01-26T07:25:56;99602.94;;;-4.55;100.00
57114;BME280;42994;51.606;9.988;2023-01-26T07:28:24;99602.78;;;-4.52;100.00
57114;BME280;42994;51.606;9.988;2023-01-26T07:30:51;99596.03;;;-4.56;100.00
57114;BME280;42994;51.606;9.988;2023-01-26T07:33:17;99596.03;;;-4.56;100.00
57114;BME280;42994;51.606;9.988;2023-01-26T07:35:45;99597.63;;;-4.53;100.00
57114;BME280;42994;51.606;9.988;2023-01-26T07:38:12;99594.88;;;-4.50;100.00
57114;BME280;42994;51.606;9.988;2023-01-26T07:40:39;99604.38;;;-4.49;100.00
57114;BME280;42994;51.606;9.988;2023-01-26T07:43:05;99609.19;;;-4.57;100.00
57114;BME280;42994;51.606;9.988;2023-01-26T07:45:46;99606.78;;;-4.45;100.00
57114;BME280;42994;51.606;9.988;2023-01-26T07:48:15;99609.41;;;-4.45;100.00
57114;BME280;42994;51.606;9.988;2023-01-26T07:50:42;99604.00;;;-4.41;100.00
57114;BME280;42994;51.606;9.988;2023-01-26T07:53:13;99606.28;;;-4.35;100.00
57114;BME280;42994;51.606;9.988;2023-01-26T07:55:49;99604.69;;;-4.38;100.00
57114;BME280;42994;51.606;9.988;2023-01-26T07:58:16;99608.47;;;-4.43;100.00
57114;BME280;42994;51.606;9.988;2023-01-26T08:00:43;99604.16;;;-4.45;100.00
57114;BME280;42994;51.606;9.988;2023-01-26T08:03:11;99600.72;;;-4.45;100.00
57114;BME280;42994;51.606;9.988;2023-01-26T08:05:38;99605.69;;;-4.40;100.00
57114;BME280;42994;51.606;9.988;2023-01-26T08:08:05;99608.97;;;-4.37;100.00
57114;BME280;42994;51.606;9.988;2023-01-26T08:10:35;99616.00;;;-4.37;100.00
57114;BME280;42994;51.606;9.988;2023-01-26T08:13:02;99612.13;;;-4.30;100.00
57114;BME280;42994;51.606;9.988;2023-01-26T08:15:29;99613.09;;;-4.33;100.00
57114;BME280;42994;51.606;9.988;2023-01-26T08:17:55;99614.81;;;-4.32;100.00
57114;BME280;42994;51.606;9.988;2023-01-26T08:20:22;99618.94;;;-4.28;100.00
57114;BME280;42994;51.606;9.988;2023-01-26T08:22:49;99614.41;;;-4.24;100.00
57114;BME280;42994;51.606;9.988;2023-01-26T08:25:16;99619.13;;;-4.15;100.00
57114;BME280;42994;51.606;9.988;2023-01-26T08:27:44;99620.16;;;-4.17;100.00
57114;BME280;42994;51.606;9.988;2023-01-26T08:30:11;99623.44;;;-4.14;100.00
57114;BME280;42994;51.606;9.988;2023-01-26T08:32:38;99623.44;;;-4.14;100.00
57114;BME280;42994;51.606;9.988;2023-01-26T08:35:06;99626.97;;;-4.15;100.00
57114;BME280;42994;51.606;9.988;2023-01-26T08:37:32;99619.47;;;-4.21;100.00
57114;BME280;42994;51.606;9.988;2023-01-26T08:39:59;99608.56;;;-4.13;100.00
57114;BME280;42994;51.606;9.988;2023-01-26T08:42:26;99611.19;;;-4.13;100.00
57114;BME280;42994;51.606;9.988;2023-01-26T08:44:54;99606.72;;;-4.11;100.00
57114;BME280;42994;51.606;9.988;2023-01-26T08:47:21;99609.94;;;-4.06;100.00
57114;BME280;42994;51.606;9.988;2023-01-26T08:49:48;99616.19;;;-4.09;100.00
57114;BME280;42994;51.606;9.988;2023-01-26T08:52:15;99609.59;;;-4.00;100.00
57114;BME280;42994;51.606;9.988;2023-01-26T08:54:41;99618.97;;;-3.96;100.00
57114;BME280;42994;51.606;9.988;2023-01-26T08:57:08;99625.28;;;-4.00;100.00
57114;BME280;42994;51.606;9.988;2023-01-26T08:59:36;99601.50;;;-3.95;100.00
57114;BME280;42994;51.606;9.988;2023-01-26T09:02:04;99608.84;;;-3.86;100.00
57114;BME280;42994;51.606;9.988;2023-01-26T09:04:32;99604.50;;;-3.87;100.00
57114;BME280;42994;51.606;9.988;2023-01-26T09:06:58;99612.56;;;-3.90;100.00
57114;BME280;42994;51.606;9.988;2023-01-26T09:09:25;99609.66;;;-3.70;100.00
57114;BME280;42994;51.606;9.988;2023-01-26T09:11:54;99608.38;;;-3.62;100.00
57114;BME280;42994;51.606;9.988;2023-01-26T09:14:21;99595.00;;;-3.58;100.00
57114;BME280;42994;51.606;9.988;2023-01-26T09:16:49;99597.53;;;-3.56;100.00
57114;BME280;42994;51.606;9.988;2023-01-26T09:19:17;99613.84;;;-3.51;100.00
57114;BME280;42994;51.606;9.988;2023-01-26T09:21:43;99608.38;;;-3.46;100.00
57114;BME280;42994;51.606;9.988;2023-01-26T09:24:10;99598.56;;;-3.43;100.00
57114;BME280;42994;51.606;9.988;2023-01-26T09:26:37;99607.78;;;-3.52;100.00
57114;BME280;42994;51.606;9.988;2023-01-26T09:29:03;99597.75;;;-3.59;100.00
57114;BME280;42994;51.606;9.988;2023-01-26T09:31:30;99601.78;;;-3.54;100.00
57114;BME280;42994;51.606;9.988;2023-01-26T09:33:57;99612.06;;;-3.51;100.00
57114;BME280;42994;51.606;9.988;2023-01-26T09:36:25;99611.16;;;-3.50;100.00
57114;BME280;42994;51.606;9.988;2023-01-26T09:38:52;99615.06;;;-3.57;100.00
57114;BME280;42994;51.606;9.988;2023-01-26T09:41:42;99608.53;;;-3.50;100.00
57114;BME280;42994;51.606;9.988;2023-01-26T09:44:17;99613.09;;;-3.53;100.00
57114;BME280;42994;51.606;9.988;2023-01-26T09:47:04;99607.16;;;-3.41;100.00
57114;BME280;42994;51.606;9.988;2023-01-26T09:49:43;99606.41;;;-3.43;100.00
57114;BME280;42994;51.606;9.988;2023-01-26T09:52:19;99613.91;;;-3.37;100.00
57114;BME280;42994;51.606;9.988;2023-01-26T09:54:50;99619.59;;;-3.44;100.00
57114;BME280;42994;51.606;9.988;2023-01-26T09:57:20;99610.75;;;-3.28;100.00
57114;BME280;42994;51.606;9.988;2023-01-26T09:59:53;99612.34;;;-3.25;100.00
57114;BME280;42994;51.606;9.988;2023-01-26T10:02:33;99608.88;;;-3.25;100.00
57114;BME280;42994;51.606;9.988;2023-01-26T10:05:10;99601.47;;;-3.33;100.00
57114;BME280;42994;51.606;9.988;2023-01-26T10:07:48;99603.72;;;-3.27;100.00
57114;BME280;42994;51.606;9.988;2023-01-26T10:10:19;99607.84;;;-3.37;100.00
57114;BME280;42994;51.606;9.988;2023-01-26T10:12:48;99607.22;;;-3.26;100.00
57114;BME280;42994;51.606;9.988;2023-01-26T10:15:27;99602.53;;;-3.21;100.00
57114;BME280;42994;51.606;9.988;2023-01-26T10:17:55;99605.59;;;-3.29;100.00
57114;BME280;42994;51.606;9.988;2023-01-26T10:20:26;99601.69;;;-3.22;100.00
57114;BME280;42994;51.606;9.988;2023-01-26T10:22:58;99603.84;;;-3.29;100.00
57114;BME280;42994;51.606;9.988;2023-01-26T10:25:29;99590.72;;;-3.29;100.00
57114;BME280;42994;51.606;9.988;2023-01-26T10:28:01;99582.50;;;-3.22;100.00
57114;BME280;42994;51.606;9.988;2023-01-26T10:30:28;99588.19;;;-3.30;100.00
57114;BME280;42994;51.606;9.988;2023-01-26T10:32:55;99575.94;;;-3.30;100.00
57114;BME280;42994;51.606;9.988;2023-01-26T10:35:23;99573.97;;;-3.26;100.00
57114;BME280;42994;51.606;9.988;2023-01-26T10:37:50;99572.84;;;-3.22;100.00
57114;BME280;42994;51.606;9.988;2023-01-26T10:40:19;99566.97;;;-3.11;100.00
57114;BME280;42994;51.606;9.988;2023-01-26T10:42:55;99566.94;;;-3.25;100.00
57114;BME280;42994;51.606;9.988;2023-01-26T10:45:25;99563.19;;;-3.21;100.00
57114;BME280;42994;51.606;9.988;2023-01-26T10:48:13;99562.44;;;-3.23;100.00
57114;BME280;42994;51.606;9.988;2023-01-26T10:50:41;99560.56;;;-3.21;100.00
57114;BME280;42994;51.606;9.988;2023-01-26T10:53:14;99558.94;;;-3.08;100.00
57114;BME280;42994;51.606;9.988;2023-01-26T10:55:42;99553.28;;;-3.16;100.00
57114;BME280;42994;51.606;9.988;2023-01-26T10:58:42;99553.84;;;-3.11;100.00
57114;BME280;42994;51.606;9.988;2023-01-26T11:01:10;99551.16;;;-2.95;100.00
57114;BME280;42994;51.606;9.988;2023-01-26T11:03:40;99555.47;;;-2.94;100.00
57114;BME280;42994;51.606;9.988;2023-01-26T11:06:13;99554.13;;;-3.01;100.00
57114;BME280;42994;51.606;9.988;2023-01-26T11:08:40;99544.44;;;-2.99;100.00
57114;BME280;42994;51.606;9.988;2023-01-26T11:11:23;99547.97;;;-3.00;100.00
57114;BME280;42994;51.606;9.988;2023-01-26T11:14:09;99539.06;;;-2.98;100.00
57114;BME280;42994;51.606;9.988;2023-01-26T11:17:00;99538.97;;;-2.96;100.00
57114;BME280;42994;51.606;9.988;2023-01-26T11:22:25;99529.22;;;-2.94;100.00
57114;BME280;42994;51.606;9.988;2023-01-26T11:25:02;99525.38;;;-2.88;100.00
57114;BME280;42994;51.606;9.988;2023-01-26T11:27:45;99523.53;;;-2.86;100.00
57114;BME280;42994;51.606;9.988;2023-01-26T11:33:16;99519.78;;;-2.82;100.00
57114;BME280;42994;51.606;9.988;2023-01-26T11:35:51;99513.78;;;-2.84;100.00
57114;BME280;42994;51.606;9.988;2023-01-26T11:38:27;99518.94;;;-2.83;100.00
57114;BME280;42994;51.606;9.988;2023-01-26T11:41:02;99510.13;;;-2.82;100.00
57114;BME280;42994;51.606;9.988;2023-01-26T11:47:06;99501.19;;;-2.65;100.00
57114;BME280;42994;51.606;9.988;2023-01-26T11:50:03;99494.47;;;-2.69;100.00
57114;BME280;42994;51.606;9.988;2023-01-26T11:52:41;99501.50;;;-2.69;100.00
57114;BME280;42994;51.606;9.988;2023-01-26T11:55:25;99495.84;;;-2.63;100.00
57114;BME280;42994;51.606;9.988;2023-01-26T11:58:13;99490.69;;;-2.65;100.00
57114;BME280;42994;51.606;9.988;2023-01-26T12:00:48;99492.97;;;-2.59;100.00
57114;BME280;42994;51.606;9.988;2023-01-26T12:03:22;99495.19;;;-2.53;100.00
57114;BME280;42994;51.606;9.988;2023-01-26T12:05:53;99489.00;;;-2.52;100.00
57114;BME280;42994;51.606;9.988;2023-01-26T12:08:24;99498.28;;;-2.46;100.00
57114;BME280;42994;51.606;9.988;2023-01-26T12:10:58;99490.59;;;-2.49;100.00
57114;BME280;42994;51.606;9.988;2023-01-26T12:13:51;99488.44;;;-2.42;100.00
57114;BME280;42994;51.606;9.988;2023-01-26T12:16:31;99482.63;;;-2.47;100.00
57114;BME280;42994;51.606;9.988;2023-01-26T12:19:08;99484.19;;;-2.45;100.00
57114;BME280;42994;51.606;9.988;2023-01-26T12:21:38;99478.84;;;-2.43;100.00
57114;BME280;42994;51.606;9.988;2023-01-26T12:24:11;99471.63;;;-2.40;100.00
57114;BME280;42994;51.606;9.988;2023-01-26T12:26:43;99478.25;;;-2.34;100.00
57114;BME280;42994;51.606;9.988;2023-01-26T12:29:14;99466.19;;;-2.37;100.00
57114;BME280;42994;51.606;9.988;2023-01-26T12:31:48;99464.91;;;-2.44;100.00
57114;BME280;42994;51.606;9.988;2023-01-26T12:34:24;99453.44;;;-2.43;100.00
57114;BME280;42994;51.606;9.988;2023-01-26T12:37:00;99460.19;;;-2.39;100.00
57114;BME280;42994;51.606;9.988;2023-01-26T12:39:33;99451.19;;;-2.35;100.00
57114;BME280;42994;51.606;9.988;2023-01-26T12:49:50;99452.28;;;-2.24;100.00
57114;BME280;42994;51.606;9.988;2023-01-26T13:19:35;99440.13;;;-2.13;100.00
57114;BME280;42994;51.606;9.988;2023-01-26T13:22:02;99445.09;;;-2.08;100.00
57114;BME280;42994;51.606;9.988;2023-01-26T13:24:42;99439.31;;;-2.00;100.00
57114;BME280;42994;51.606;9.988;2023-01-26T13:27:40;99446.34;;;-2.14;100.00
57114;BME280;42994;51.606;9.988;2023-01-26T13:30:33;99446.84;;;-2.08;100.00
57114;BME280;42994;51.606;9.988;2023-01-26T13:33:04;99454.00;;;-2.10;100.00
57114;BME280;42994;51.606;9.988;2023-01-26T13:35:39;99456.53;;;-2.09;100.00
57114;BME280;42994;51.606;9.988;2023-01-26T13:38:13;99459.97;;;-2.08;100.00
57114;BME280;42994;51.606;9.988;2023-01-26T13:40:41;99455.28;;;-2.03;100.00
57114;BME280;42994;51.606;9.988;2023-01-26T13:43:14;99456.22;;;-2.04;100.00
57114;BME280;42994;51.606;9.988;2023-01-26T13:45:53;99450.13;;;-2.05;100.00
57114;BME280;42994;51.606;9.988;2023-01-26T13:48:32;99457.66;;;-2.13;100.00
57114;BME280;42994;51.606;9.988;2023-01-26T13:51:04;99457.56;;;-2.11;100.00
57114;BME280;42994;51.606;9.988;2023-01-26T13:53:35;99450.53;;;-2.11;100.00
57114;BME280;42994;51.606;9.988;2023-01-26T13:56:04;99453.25;;;-2.13;100.00
57114;BME280;42994;51.606;9.988;2023-01-26T13:58:33;99451.69;;;-2.15;100.00